createdAt,value
2017-10-11T00:00:00.839Z,15.00
2017-10-11T00:02:30.012Z,15.00
2017-10-11T00:04:58.478Z,15.10
2017-10-11T00:07:27.315Z,15.00
2017-10-11T00:09:56.414Z,15.00
2017-10-11T00:12:24.896Z,14.90
2017-10-11T00:14:53.823Z,14.90
2017-10-11T00:17:23.311Z,15.00
2017-10-11T00:19:51.899Z,15.00
2017-10-11T00:22:20.975Z,15.00
2017-10-11T00:24:49.552Z,15.00
2017-10-11T00:27:18.147Z,14.90
2017-10-11T00:29:46.684Z,15.00
2017-10-11T00:32:16.635Z,15.00
2017-10-11T00:34:45.369Z,14.90
2017-10-11T00:37:14.671Z,14.90
2017-10-11T00:39:44.119Z,14.90
2017-10-11T00:42:13.111Z,14.90
2017-10-11T00:44:41.452Z,14.90
2017-10-11T00:47:09.922Z,15.00
2017-10-11T00:49:38.671Z,15.00
2017-10-11T00:52:07.053Z,15.00
2017-10-11T00:54:35.703Z,15.00
2017-10-11T00:57:05.404Z,14.90
2017-10-11T00:59:34.522Z,14.90
2017-10-11T01:02:03.495Z,14.90
2017-10-11T01:04:31.845Z,14.90
2017-10-11T01:07:01.426Z,15.00
2017-10-11T01:09:30.160Z,15.00
2017-10-11T01:11:59.047Z,15.00
2017-10-11T01:14:27.659Z,15.00
2017-10-11T01:16:56.101Z,15.00
2017-10-11T01:19:25.575Z,15.00
2017-10-11T01:21:54.951Z,15.00
2017-10-11T01:24:23.988Z,15.00
2017-10-11T01:26:52.982Z,15.00
2017-10-11T01:29:21.787Z,14.90
2017-10-11T01:31:51.399Z,15.00
2017-10-11T01:34:20.271Z,14.90
2017-10-11T01:36:49.382Z,15.00
2017-10-11T01:39:17.891Z,14.90
2017-10-11T01:41:46.679Z,14.90
2017-10-11T01:44:15.339Z,14.90
2017-10-11T01:46:44.568Z,14.90
2017-10-11T01:49:13.243Z,14.90
2017-10-11T01:51:41.628Z,14.90
2017-10-11T01:54:10.808Z,14.90
2017-10-11T01:56:39.830Z,14.90
2017-10-11T01:59:08.258Z,14.90
2017-10-11T02:01:37.023Z,14.90
2017-10-11T02:04:05.806Z,14.90
2017-10-11T02:06:34.355Z,14.90
2017-10-11T02:09:02.968Z,14.90
2017-10-11T02:11:31.559Z,14.90
2017-10-11T02:14:00.112Z,14.90
2017-10-11T02:16:29.134Z,14.90
2017-10-11T02:18:58.025Z,14.90
2017-10-11T02:21:26.712Z,14.90
2017-10-11T02:23:55.439Z,15.00
2017-10-11T02:26:25.027Z,14.90
2017-10-11T02:28:53.979Z,14.90
2017-10-11T02:31:22.423Z,14.90
2017-10-11T02:33:51.327Z,14.90
2017-10-11T02:36:20.264Z,15.00
2017-10-11T02:38:49.306Z,14.90
2017-10-11T02:41:18.027Z,14.90
2017-10-11T02:43:46.728Z,14.90
2017-10-11T02:46:15.091Z,14.90
2017-10-11T02:48:43.447Z,15.00
2017-10-11T02:51:11.909Z,15.00
2017-10-11T02:53:40.584Z,15.10
2017-10-11T02:56:10.067Z,15.00
2017-10-11T02:58:38.671Z,15.00
2017-10-11T03:01:08.124Z,15.00
2017-10-11T03:03:36.424Z,15.00
2017-10-11T03:06:04.835Z,15.00
2017-10-11T03:08:33.559Z,15.00
2017-10-11T03:11:02.431Z,15.00
2017-10-11T03:13:31.372Z,15.00
2017-10-11T03:16:00.071Z,15.00
2017-10-11T03:18:28.673Z,14.90
2017-10-11T03:20:57.531Z,14.90
2017-10-11T03:23:26.120Z,15.00
2017-10-11T03:25:54.763Z,15.00
2017-10-11T03:28:23.187Z,15.00
2017-10-11T03:30:51.521Z,14.90
2017-10-11T03:33:20.259Z,14.90
2017-10-11T03:35:50.015Z,14.90
2017-10-11T03:38:18.623Z,14.90
2017-10-11T03:40:47.661Z,14.80
2017-10-11T03:43:15.959Z,14.80
2017-10-11T03:45:45.147Z,14.90
2017-10-11T03:48:13.761Z,14.80
2017-10-11T03:50:42.290Z,14.80
2017-10-11T03:53:11.042Z,14.80
2017-10-11T03:55:39.409Z,14.80
2017-10-11T03:58:08.299Z,14.80
2017-10-11T04:00:38.606Z,14.80
2017-10-11T04:03:07.438Z,14.90
2017-10-11T04:05:35.983Z,14.90
2017-10-11T04:08:04.671Z,14.90
2017-10-11T04:10:33.132Z,14.90
2017-10-11T04:13:01.876Z,14.90
2017-10-11T04:15:30.889Z,14.90
2017-10-11T04:17:59.515Z,14.90
2017-10-11T04:20:28.577Z,15.00
2017-10-11T04:23:01.715Z,14.90
2017-10-11T04:25:30.511Z,14.90
2017-10-11T04:27:59.091Z,15.00
2017-10-11T04:30:27.779Z,15.00
2017-10-11T04:32:56.161Z,14.90
2017-10-11T04:35:24.763Z,14.90
2017-10-11T04:37:53.330Z,14.90
2017-10-11T04:40:22.111Z,14.90
2017-10-11T04:42:50.727Z,14.90
2017-10-11T04:45:19.132Z,14.90
2017-10-11T04:47:48.584Z,14.80
2017-10-11T04:50:17.019Z,14.80
2017-10-11T04:52:45.650Z,14.70
2017-10-11T04:55:13.944Z,14.70
2017-10-11T04:57:43.032Z,14.70
2017-10-11T05:00:11.500Z,14.70
2017-10-11T05:02:40.191Z,14.70
2017-10-11T05:05:09.527Z,14.70
2017-10-11T05:07:38.489Z,14.80
2017-10-11T05:10:06.860Z,14.80
2017-10-11T05:12:35.583Z,14.80
2017-10-11T05:15:04.151Z,14.80
2017-10-11T05:17:32.683Z,14.80
2017-10-11T05:20:01.376Z,14.90
2017-10-11T05:22:30.699Z,14.90
2017-10-11T05:24:59.399Z,14.90
2017-10-11T05:27:27.907Z,15.00
2017-10-11T05:29:56.975Z,14.90
2017-10-11T05:32:25.661Z,14.90
2017-10-11T05:34:54.391Z,14.90
2017-10-11T05:37:23.255Z,14.90
2017-10-11T05:39:52.108Z,15.00
2017-10-11T05:42:20.852Z,15.00
2017-10-11T05:44:50.659Z,15.00
2017-10-11T05:47:19.211Z,15.00
2017-10-11T05:49:47.789Z,14.90
2017-10-11T05:52:17.433Z,14.90
2017-10-11T05:54:46.585Z,14.90
2017-10-11T05:57:15.418Z,14.90
2017-10-11T05:59:44.340Z,14.90
2017-10-11T06:02:13.470Z,14.90
2017-10-11T06:04:56.958Z,15.00
2017-10-11T06:07:26.947Z,14.90
2017-10-11T06:09:55.723Z,14.90
2017-10-11T06:12:24.291Z,15.00
2017-10-11T06:14:53.489Z,15.00
2017-10-11T06:17:22.278Z,15.00
2017-10-11T06:19:51.190Z,15.00
2017-10-11T06:22:20.387Z,15.00
2017-10-11T06:24:48.987Z,15.10
2017-10-11T06:27:17.325Z,15.10
2017-10-11T06:29:45.755Z,15.20
2017-10-11T06:32:14.171Z,15.10
2017-10-11T06:34:43.667Z,15.20
2017-10-11T06:37:12.607Z,15.30
2017-10-11T06:39:41.139Z,15.30
2017-10-11T06:42:10.316Z,15.40
2017-10-11T06:44:40.536Z,15.40
2017-10-11T06:47:08.935Z,15.40
2017-10-11T06:49:37.247Z,15.40
2017-10-11T06:52:05.560Z,15.30
2017-10-11T06:54:34.414Z,15.20
2017-10-11T06:57:02.883Z,15.30
2017-10-11T06:59:31.366Z,15.40
2017-10-11T07:02:00.359Z,15.50
2017-10-11T07:04:34.434Z,15.50
2017-10-11T07:07:03.443Z,15.50
2017-10-11T07:09:32.570Z,15.50
2017-10-11T07:12:01.223Z,15.50
2017-10-11T07:14:30.054Z,15.50
2017-10-11T07:16:58.536Z,15.60
2017-10-11T07:19:27.050Z,15.60
2017-10-11T07:21:55.711Z,15.70
2017-10-11T07:24:24.471Z,15.70
2017-10-11T07:26:53.536Z,15.70
2017-10-11T07:29:22.378Z,15.80
2017-10-11T07:31:51.239Z,15.90
2017-10-11T07:34:20.086Z,16.00
2017-10-11T07:36:48.757Z,16.00
2017-10-11T07:39:17.380Z,16.10
2017-10-11T07:41:46.215Z,16.00
2017-10-11T07:44:15.642Z,16.10
2017-10-11T07:46:44.551Z,16.20
2017-10-11T07:49:14.143Z,16.20
2017-10-11T07:51:42.859Z,16.10
2017-10-11T07:54:11.502Z,16.10
2017-10-11T07:56:40.444Z,16.10
2017-10-11T07:59:09.555Z,16.10
2017-10-11T08:01:38.892Z,16.10
2017-10-11T08:04:07.932Z,16.10
2017-10-11T08:06:36.805Z,16.00
2017-10-11T08:09:05.975Z,16.00
2017-10-11T08:11:34.841Z,15.80
2017-10-11T08:14:03.651Z,15.80
2017-10-11T08:16:32.291Z,15.80
2017-10-11T08:19:01.027Z,15.80
2017-10-11T08:21:29.916Z,15.80
2017-10-11T08:23:58.807Z,15.90
2017-10-11T08:26:27.360Z,16.00
2017-10-11T08:28:56.825Z,16.00
2017-10-11T08:31:25.700Z,15.90
2017-10-11T08:33:54.774Z,15.90
2017-10-11T08:36:23.628Z,15.90
2017-10-11T08:38:53.708Z,15.90
2017-10-11T08:41:22.394Z,15.80
2017-10-11T08:43:50.951Z,15.80
2017-10-11T08:46:19.387Z,15.80
2017-10-11T08:48:47.681Z,15.80
2017-10-11T08:51:17.306Z,15.90
2017-10-11T08:53:46.107Z,15.90
2017-10-11T08:56:15.015Z,16.00
2017-10-11T08:58:43.699Z,16.20
2017-10-11T09:01:12.663Z,16.50
2017-10-11T09:03:42.475Z,16.80
2017-10-11T09:06:11.176Z,17.00
2017-10-11T09:08:39.524Z,17.10
2017-10-11T09:11:08.993Z,17.10
2017-10-11T09:13:37.655Z,17.10
2017-10-11T09:16:06.751Z,17.20
2017-10-11T09:18:35.347Z,17.20
2017-10-11T09:21:04.295Z,17.50
2017-10-11T09:23:33.007Z,17.60
2017-10-11T09:26:02.387Z,17.60
2017-10-11T09:28:30.947Z,17.60
2017-10-11T09:31:00.132Z,17.50
2017-10-11T09:33:28.806Z,17.60
2017-10-11T09:35:57.291Z,17.60
2017-10-11T09:38:25.973Z,17.60
2017-10-11T09:40:54.429Z,17.60
2017-10-11T09:43:23.082Z,17.60
2017-10-11T09:45:52.691Z,17.50
2017-10-11T09:48:22.767Z,17.40
2017-10-11T09:50:51.486Z,17.50
2017-10-11T09:53:20.984Z,17.40
2017-10-11T09:55:50.471Z,17.30
2017-10-11T09:58:19.150Z,17.20
2017-10-11T10:00:47.771Z,17.20
2017-10-11T10:03:16.318Z,17.10
2017-10-11T10:05:45.071Z,17.10
2017-10-11T10:08:13.374Z,17.10
2017-10-11T10:10:41.935Z,17.10
2017-10-11T10:13:10.616Z,17.00
2017-10-11T10:15:39.084Z,17.00
2017-10-11T10:18:07.992Z,17.00
2017-10-11T10:20:37.046Z,17.00
2017-10-11T10:23:05.603Z,17.00
2017-10-11T10:25:34.040Z,17.10
2017-10-11T10:28:02.616Z,17.00
2017-10-11T10:30:31.675Z,17.00
2017-10-11T10:33:00.409Z,17.10
2017-10-11T10:35:28.807Z,17.00
2017-10-11T10:37:57.527Z,16.90
2017-10-11T10:40:26.083Z,16.80
2017-10-11T10:42:54.554Z,16.70
2017-10-11T10:45:22.964Z,16.50
2017-10-11T10:47:51.323Z,16.40
2017-10-11T10:50:20.024Z,16.40
2017-10-11T10:52:48.784Z,16.40
2017-10-11T10:55:17.177Z,16.40
2017-10-11T10:57:45.991Z,16.40
2017-10-11T11:00:14.443Z,16.30
2017-10-11T11:02:43.472Z,16.40
2017-10-11T11:05:12.122Z,16.40
2017-10-11T11:07:40.511Z,16.50
2017-10-11T11:10:08.813Z,16.40
2017-10-11T11:12:37.376Z,16.40
2017-10-11T11:15:05.771Z,16.50
2017-10-11T11:17:34.362Z,16.60
2017-10-11T11:20:03.199Z,16.60
2017-10-11T11:22:31.617Z,16.60
2017-10-11T11:24:59.936Z,16.60
2017-10-11T11:27:28.624Z,16.70
2017-10-11T11:29:58.319Z,16.80
2017-10-11T11:32:27.047Z,16.80
2017-10-11T11:34:55.671Z,16.90
2017-10-11T11:37:24.547Z,17.00
2017-10-11T11:39:52.895Z,17.20
2017-10-11T11:42:21.518Z,17.10
2017-10-11T11:44:50.191Z,17.00
2017-10-11T11:47:19.452Z,17.20
2017-10-11T11:49:47.974Z,17.20
2017-10-11T11:52:16.267Z,17.30
2017-10-11T11:54:44.955Z,17.40
2017-10-11T11:57:14.178Z,17.60
2017-10-11T11:59:42.559Z,17.90
2017-10-11T12:02:11.200Z,18.10
2017-10-11T12:04:40.127Z,18.40
2017-10-11T12:07:09.802Z,18.60
2017-10-11T12:09:38.296Z,18.70
2017-10-11T12:12:07.156Z,18.80
2017-10-11T12:14:35.819Z,18.70
2017-10-11T12:17:04.327Z,18.60
2017-10-11T12:19:33.246Z,18.70
2017-10-11T12:22:01.682Z,18.50
2017-10-11T12:24:30.460Z,18.50
2017-10-11T12:26:58.895Z,18.60
2017-10-11T12:29:27.343Z,18.40
2017-10-11T12:31:55.668Z,18.40
2017-10-11T12:34:24.234Z,18.40
2017-10-11T12:36:52.975Z,18.30
2017-10-11T12:39:21.699Z,18.10
2017-10-11T12:41:50.363Z,18.00
2017-10-11T12:44:19.464Z,18.10
2017-10-11T12:46:48.558Z,18.00
2017-10-11T12:49:17.071Z,18.00
2017-10-11T12:51:45.371Z,18.10
2017-10-11T12:54:13.934Z,17.90
2017-10-11T12:56:42.496Z,17.80
2017-10-11T12:59:10.970Z,17.80
2017-10-11T13:01:39.709Z,17.70
2017-10-11T13:04:09.324Z,17.60
2017-10-11T13:06:37.873Z,17.60
2017-10-11T13:09:06.705Z,17.60
2017-10-11T13:11:35.403Z,17.60
2017-10-11T13:14:03.942Z,17.50
2017-10-11T13:16:32.391Z,17.50
2017-10-11T13:19:01.269Z,17.50
2017-10-11T13:21:30.027Z,17.60
2017-10-11T13:23:59.542Z,17.60
2017-10-11T13:26:28.772Z,17.30
2017-10-11T13:28:57.119Z,17.30
2017-10-11T13:31:26.879Z,17.30
2017-10-11T13:33:55.276Z,17.40
2017-10-11T13:36:24.258Z,17.40
2017-10-11T13:38:53.019Z,17.50
2017-10-11T13:41:22.123Z,17.50
2017-10-11T13:43:50.432Z,17.60
2017-10-11T13:46:19.288Z,17.60
2017-10-11T13:48:47.804Z,17.60
2017-10-11T13:51:16.342Z,17.70
2017-10-11T13:53:45.015Z,17.60
2017-10-11T13:56:13.656Z,17.50
2017-10-11T13:58:42.337Z,17.50
2017-10-11T14:01:11.103Z,17.40
2017-10-11T14:03:39.409Z,17.30
2017-10-11T14:06:08.045Z,17.30
2017-10-11T14:08:36.864Z,17.20
2017-10-11T14:11:05.336Z,17.20
2017-10-11T14:13:33.670Z,17.20
2017-10-11T14:16:03.134Z,17.20
2017-10-11T14:18:31.688Z,17.20
2017-10-11T14:21:00.513Z,17.20
2017-10-11T14:23:29.403Z,17.20
2017-10-11T14:25:58.090Z,17.30
2017-10-11T14:28:27.589Z,17.30
2017-10-11T14:30:56.275Z,17.40
2017-10-11T14:33:24.880Z,17.30
2017-10-11T14:35:53.537Z,17.30
2017-10-11T14:38:22.094Z,17.20
2017-10-11T14:40:50.515Z,17.30
2017-10-11T14:43:19.684Z,17.20
2017-10-11T14:45:48.171Z,17.40
2017-10-11T14:48:16.675Z,17.40
2017-10-11T14:50:45.071Z,17.40
2017-10-11T14:53:14.016Z,17.50
2017-10-11T14:55:42.596Z,17.60
2017-10-11T14:58:10.971Z,17.50
2017-10-11T15:00:40.210Z,17.40
2017-10-11T15:03:09.011Z,17.30
2017-10-11T15:05:37.565Z,17.40
2017-10-11T15:08:06.021Z,17.40
2017-10-11T15:10:34.454Z,17.30
2017-10-11T15:13:02.951Z,17.30
2017-10-11T15:15:31.611Z,17.40
2017-10-11T15:18:01.740Z,17.30
2017-10-11T15:20:30.417Z,17.20
2017-10-11T15:22:59.074Z,17.10
2017-10-11T15:25:27.591Z,17.00
2017-10-11T15:27:56.283Z,16.90
2017-10-11T15:30:24.727Z,16.80
2017-10-11T15:32:53.110Z,16.80
2017-10-11T15:35:21.626Z,16.80
2017-10-11T15:37:50.476Z,16.70
2017-10-11T15:40:19.366Z,16.70
2017-10-11T15:42:48.111Z,16.70
2017-10-11T15:45:16.411Z,16.70
2017-10-11T15:47:45.626Z,16.60
2017-10-11T15:50:14.291Z,16.60
2017-10-11T15:52:43.215Z,16.70
2017-10-11T15:55:12.486Z,16.60
2017-10-11T15:57:41.563Z,16.60
2017-10-11T16:00:09.855Z,16.60
2017-10-11T16:02:38.563Z,16.50
2017-10-11T16:05:07.175Z,16.50
2017-10-11T16:07:36.059Z,16.40
2017-10-11T16:10:04.415Z,16.40
2017-10-11T16:12:33.136Z,16.30
2017-10-11T16:15:01.838Z,16.30
2017-10-11T16:17:30.480Z,16.30
2017-10-11T16:19:58.820Z,16.30
2017-10-11T16:22:28.450Z,16.30
2017-10-11T16:24:57.155Z,16.20
2017-10-11T16:27:25.647Z,16.20
2017-10-11T16:29:54.283Z,16.20
2017-10-11T16:32:23.331Z,16.30
2017-10-11T16:34:51.895Z,16.20
2017-10-11T16:37:20.522Z,16.20
2017-10-11T16:39:49.224Z,16.20
2017-10-11T16:42:18.171Z,16.10
2017-10-11T16:44:46.810Z,16.20
2017-10-11T16:47:15.326Z,16.20
2017-10-11T16:49:43.854Z,16.20
2017-10-11T16:52:13.166Z,16.20
2017-10-11T16:54:41.983Z,16.10
2017-10-11T16:57:10.921Z,16.00
2017-10-11T16:59:40.121Z,16.10
2017-10-11T17:02:08.994Z,16.10
2017-10-11T17:04:37.864Z,16.10
2017-10-11T17:07:07.158Z,16.10
2017-10-11T17:09:36.219Z,16.10
2017-10-11T17:12:05.294Z,16.10
2017-10-11T17:14:34.350Z,16.10
2017-10-11T17:17:02.863Z,16.10
2017-10-11T17:19:31.452Z,16.00
2017-10-11T17:22:00.243Z,16.00
2017-10-11T17:24:29.043Z,15.90
2017-10-11T17:26:57.611Z,15.90
2017-10-11T17:29:26.767Z,15.90
2017-10-11T17:31:55.469Z,15.90
2017-10-11T17:34:24.051Z,15.90
2017-10-11T17:36:52.984Z,15.90
2017-10-11T17:39:21.831Z,15.80
2017-10-11T17:41:51.352Z,15.80
2017-10-11T17:44:19.856Z,15.80
2017-10-11T17:46:48.761Z,15.90
2017-10-11T17:49:17.432Z,15.80
2017-10-11T17:51:46.323Z,15.80
2017-10-11T17:54:14.762Z,15.80
2017-10-11T17:56:43.802Z,15.80
2017-10-11T17:59:12.419Z,15.70
2017-10-11T18:01:41.170Z,15.70
2017-10-11T18:04:10.595Z,15.80
2017-10-11T18:06:39.158Z,15.80
2017-10-11T18:09:07.712Z,15.80
2017-10-11T18:11:36.535Z,15.70
2017-10-11T18:14:05.731Z,15.80
2017-10-11T18:16:34.515Z,15.80
2017-10-11T18:19:03.126Z,15.80
2017-10-11T18:21:31.991Z,15.70
2017-10-11T18:24:00.511Z,15.80
2017-10-11T18:26:29.842Z,15.80
2017-10-11T18:28:58.147Z,15.70
2017-10-11T18:31:26.661Z,15.70
2017-10-11T18:33:55.663Z,15.70
2017-10-11T18:36:24.924Z,15.70
2017-10-11T18:38:53.824Z,15.70
2017-10-11T18:41:22.635Z,15.70
2017-10-11T18:43:51.054Z,15.70
2017-10-11T18:46:19.950Z,15.70
2017-10-11T18:48:48.311Z,15.70
2017-10-11T18:51:16.731Z,15.70
2017-10-11T18:53:45.048Z,15.70
2017-10-11T18:56:13.690Z,15.70
2017-10-11T18:58:42.289Z,15.60
2017-10-11T19:01:11.459Z,15.70
2017-10-11T19:03:40.231Z,15.80
2017-10-11T19:06:09.795Z,15.70
2017-10-11T19:08:38.242Z,15.60
2017-10-11T19:11:06.568Z,15.70
2017-10-11T19:13:36.423Z,15.60
2017-10-11T19:16:05.132Z,15.60
2017-10-11T19:18:33.487Z,15.70
2017-10-11T19:21:02.202Z,15.60
2017-10-11T19:23:31.047Z,15.50
2017-10-11T19:25:59.535Z,15.60
2017-10-11T19:28:28.346Z,15.50
2017-10-11T19:30:57.386Z,15.60
2017-10-11T19:33:25.665Z,15.70
2017-10-11T19:35:54.423Z,15.60
2017-10-11T19:38:22.748Z,15.60
2017-10-11T19:40:52.715Z,15.60
2017-10-11T19:43:21.202Z,15.60
2017-10-11T19:45:50.115Z,15.70
2017-10-11T19:48:19.076Z,15.70
2017-10-11T19:50:47.687Z,15.70
2017-10-11T19:53:16.806Z,15.70
2017-10-11T19:55:46.244Z,15.60
2017-10-11T19:58:15.011Z,15.60
2017-10-11T20:00:44.244Z,15.50
2017-10-11T20:03:12.832Z,15.50
2017-10-11T20:05:41.735Z,15.50
2017-10-11T20:08:10.399Z,15.50
2017-10-11T20:10:38.803Z,15.50
2017-10-11T20:13:07.777Z,15.60
2017-10-11T20:15:36.107Z,15.50
2017-10-11T20:18:04.739Z,15.60
2017-10-11T20:20:34.424Z,15.50
2017-10-11T20:23:03.009Z,15.50
2017-10-11T20:25:31.820Z,15.50
2017-10-11T20:28:00.835Z,15.30
2017-10-11T20:30:29.914Z,15.30
2017-10-11T20:32:58.570Z,15.20
2017-10-11T20:35:27.600Z,15.10
2017-10-11T20:37:56.894Z,15.10
2017-10-11T20:40:25.983Z,15.10
2017-10-11T20:42:54.980Z,15.00
2017-10-11T20:45:24.309Z,15.00
2017-10-11T20:47:53.226Z,15.00
2017-10-11T20:50:22.722Z,15.00
2017-10-11T20:52:51.958Z,15.00
2017-10-11T20:55:21.243Z,15.00
2017-10-11T20:57:49.956Z,15.00
2017-10-11T21:00:18.345Z,15.10
2017-10-11T21:02:47.165Z,15.10
2017-10-11T21:05:16.254Z,15.10
2017-10-11T21:07:44.986Z,15.10
2017-10-11T21:10:13.319Z,15.10
2017-10-11T21:12:42.296Z,15.10
2017-10-11T21:15:11.188Z,15.00
2017-10-11T21:17:40.290Z,15.10
2017-10-11T21:20:08.976Z,15.10
2017-10-11T21:22:37.437Z,15.20
2017-10-11T21:25:06.773Z,15.20
2017-10-11T21:27:35.205Z,15.20
2017-10-11T21:30:04.680Z,15.30
2017-10-11T21:32:33.259Z,15.30
2017-10-11T21:35:01.765Z,15.20
2017-10-11T21:37:30.376Z,15.20
2017-10-11T21:40:00.855Z,15.20
2017-10-11T21:42:30.487Z,15.30
2017-10-11T21:44:59.139Z,15.20
2017-10-11T21:47:27.511Z,15.10
2017-10-11T21:49:56.199Z,15.10
2017-10-11T21:52:26.575Z,15.10
2017-10-11T21:54:55.587Z,15.20
2017-10-11T21:57:23.963Z,15.20
2017-10-11T21:59:52.919Z,15.20
2017-10-11T22:02:21.459Z,15.10
2017-10-11T22:04:49.834Z,15.10
2017-10-11T22:07:18.696Z,15.10
2017-10-11T22:09:47.334Z,15.20
2017-10-11T22:12:16.091Z,15.20
2017-10-11T22:14:44.792Z,15.20
2017-10-11T22:17:13.895Z,15.20
2017-10-11T22:19:43.361Z,15.20
2017-10-11T22:22:12.232Z,15.20
2017-10-11T22:24:41.979Z,15.20
2017-10-11T22:27:10.847Z,15.20
2017-10-11T22:29:40.153Z,15.20
2017-10-11T22:32:08.803Z,15.20
2017-10-11T22:34:37.127Z,15.20
2017-10-11T22:37:05.811Z,15.20
2017-10-11T22:39:34.835Z,15.10
2017-10-11T22:42:03.614Z,15.10
2017-10-11T22:44:32.470Z,15.10
2017-10-11T22:47:01.201Z,15.10
2017-10-11T22:49:30.054Z,15.10
2017-10-11T22:51:58.862Z,15.10
2017-10-11T22:54:28.040Z,15.10
2017-10-11T22:56:56.679Z,15.20
2017-10-11T22:59:25.135Z,15.20
2017-10-11T23:01:54.561Z,15.10
2017-10-11T23:04:23.096Z,15.00
2017-10-11T23:06:51.683Z,15.00
2017-10-11T23:09:20.542Z,15.00
2017-10-11T23:11:48.847Z,14.90
2017-10-11T23:14:17.507Z,14.90
2017-10-11T23:16:46.652Z,14.90
2017-10-11T23:19:15.920Z,14.80
2017-10-11T23:21:45.027Z,14.80
2017-10-11T23:24:13.711Z,14.80
2017-10-11T23:26:42.367Z,14.80
2017-10-11T23:29:11.699Z,14.80
2017-10-11T23:31:40.147Z,14.80
2017-10-11T23:34:08.626Z,14.90
2017-10-11T23:36:37.495Z,14.90
2017-10-11T23:39:06.846Z,14.90
2017-10-11T23:41:36.015Z,14.90
2017-10-11T23:44:05.414Z,14.90
2017-10-11T23:46:33.927Z,14.90
2017-10-11T23:49:02.736Z,14.90
2017-10-11T23:51:31.304Z,15.00
2017-10-11T23:53:59.751Z,14.90
2017-10-11T23:56:28.254Z,14.90
2017-10-11T23:58:56.761Z,14.90
